PWSweather.com
Personal Weather Stations
Station Observations
KCOGRAND2
Redlands, Southcamp Road & Dakota Circle, Grand Junction, CO 81507

Redlands, Southcamp Road & Dakota CircleGrand Junction, CO 81507

Lat: 39.055, Lon: -108.637

Elevation: 4870

Station Type: RadioShack WX200

High Low Average
Temperature 79.7°F26.5°C 58.8°F14.9°C 70.0°F21.1°C
Dew Point 38.7°F3.7°C 13.5°F-10.3°C 25.2°F-3.8°C
Winds 30.0 mph 48.3 kmh Calm Calm 8.0 mph S12.9 kmh S
Wind Gusts 51.2 mph82.4 kmh -- 14.0 mph22.5 kmh
Humidity 47% 11% 24%
Pressure 25.04 in848.0 mb 24.75 in838.1 mb -
Precipitation 0.00 in0.0 mm - -
Hour Temp Dew Point Humidity Winds Wind Gusts Pressure Precip Precip Rate Daily Precip Total
12:04 AM 65.7°F18.7°C 19.8°F-6.8°C 17% 2.0 mph SSE3.2 kmh SSE 4.5 mph7.2 kmh 25.04 in848.0 mb 0.00 in0.0 mm 0.00 in/hr0.0 mm/hr 0.00 in0.0 mm
12:09 AM 66.2°F19.0°C 20.1°F-6.6°C 17% 1.0 mph S1.6 kmh S 4.9 mph7.9 kmh 25.04 in848.0 mb 0.00 in0.0 mm 0.00 in/hr0.0 mm/hr 0.00 in0.0 mm
12:14 AM 65.8°F18.8°C 19.8°F-6.8°C 17% 2.0 mph S3.2 kmh S 5.4 mph8.7 kmh 25.04 in848.0 mb 0.00 in0.0 mm 0.00 in/hr0.0 mm/hr 0.00 in0.0 mm
12:19 AM 65.5°F18.6°C 19.6°F-6.9°C 17% 3.0 mph S4.8 kmh S 5.8 mph9.3 kmh 25.04 in848.0 mb 0.00 in0.0 mm 0.00 in/hr0.0 mm/hr 0.00 in0.0 mm
12:24 AM 65.5°F18.6°C 23.4°F-4.8°C 20% 4.0 mph SSW6.4 kmh SSW 7.4 mph11.9 kmh 25.04 in848.0 mb 0.00 in0.0 mm 0.00 in/hr0.0 mm/hr 0.00 in0.0 mm
12:29 AM 66.0°F18.9°C 19.9°F-6.7°C 17% 5.0 mph SSW8.0 kmh SSW 7.8 mph12.6 kmh 25.04 in848.0 mb 0.00 in0.0 mm 0.00 in/hr0.0 mm/hr 0.00 in0.0 mm
12:34 AM 66.0°F18.9°C 19.9°F-6.7°C 17% 5.0 mph SSW8.0 kmh SSW 6.9 mph11.1 kmh 25.04 in848.0 mb 0.00 in0.0 mm 0.00 in/hr0.0 mm/hr 0.00 in0.0 mm
12:39 AM 66.2°F19.0°C 20.1°F-6.6°C 17% 4.0 mph SSW6.4 kmh SSW 6.9 mph11.1 kmh 25.04 in848.0 mb 0.00 in0.0 mm 0.00 in/hr0.0 mm/hr 0.00 in0.0 mm
12:44 AM 66.2°F19.0°C 20.1°F-6.6°C 17% 4.0 mph SSW6.4 kmh SSW 6.9 mph11.1 kmh 25.04 in848.0 mb 0.00 in0.0 mm 0.00 in/hr0.0 mm/hr 0.00 in0.0 mm
12:49 AM 66.4°F19.1°C 20.3°F-6.5°C 17% 4.0 mph SW6.4 kmh SW 5.8 mph9.3 kmh 25.04 in848.0 mb 0.00 in0.0 mm 0.00 in/hr0.0 mm/hr 0.00 in0.0 mm
12:54 AM 66.6°F19.2°C 20.5°F-6.4°C 17% 4.0 mph SSW6.4 kmh SSW 7.4 mph11.9 kmh 25.04 in848.0 mb 0.00 in0.0 mm 0.00 in/hr0.0 mm/hr 0.00 in0.0 mm
12:59 AM 66.7°F19.3°C 20.5°F-6.4°C 17% 4.0 mph SSW6.4 kmh SSW 6.7 mph10.8 kmh 25.01 in846.9 mb 0.00 in0.0 mm 0.00 in/hr0.0 mm/hr 0.00 in0.0 mm
01:04 AM 67.1°F19.5°C 20.8°F-6.2°C 17% 4.0 mph S6.4 kmh S 8.7 mph14.0 kmh 25.01 in846.9 mb 0.00 in0.0 mm 0.00 in/hr0.0 mm/hr 0.00 in0.0 mm
01:09 AM 67.1°F19.5°C 18.0°F-7.8°C 15% 4.0 mph S6.4 kmh S 6.3 mph10.1 kmh 25.01 in846.9 mb 0.00 in0.0 mm 0.00 in/hr0.0 mm/hr 0.00 in0.0 mm
01:14 AM 67.1°F19.5°C 18.0°F-7.8°C 15% 5.0 mph S8.0 kmh S 7.8 mph12.6 kmh 25.01 in846.9 mb 0.00 in0.0 mm 0.00 in/hr0.0 mm/hr 0.00 in0.0 mm
01:19 AM 67.1°F19.5°C 18.0°F-7.8°C 15% 6.0 mph SSW9.7 kmh SSW 9.6 mph15.4 kmh 25.01 in846.9 mb 0.00 in0.0 mm 0.00 in/hr0.0 mm/hr 0.00 in0.0 mm
01:24 AM 67.1°F19.5°C 18.0°F-7.8°C 15% 6.0 mph S9.7 kmh S 8.3 mph13.4 kmh 25.01 in846.9 mb 0.00 in0.0 mm 0.00 in/hr0.0 mm/hr 0.00 in0.0 mm
01:29 AM 67.1°F19.5°C 18.0°F-7.8°C 15% 5.0 mph S8.0 kmh S 7.4 mph11.9 kmh 25.01 in846.9 mb 0.00 in0.0 mm 0.00 in/hr0.0 mm/hr 0.00 in0.0 mm
01:34 AM 67.5°F19.7°C 18.1°F-7.7°C 15% 6.0 mph S9.7 kmh S 9.2 mph14.8 kmh 25.01 in846.9 mb 0.00 in0.0 mm 0.00 in/hr0.0 mm/hr 0.00 in0.0 mm
01:39 AM 67.3°F19.6°C 18.1°F-7.7°C 15% 6.0 mph SSW9.7 kmh SSW 7.8 mph12.6 kmh 25.01 in846.9 mb 0.00 in0.0 mm 0.00 in/hr0.0 mm/hr 0.00 in0.0 mm
01:44 AM 67.1°F19.5°C 18.0°F-7.8°C 15% 5.0 mph SSW8.0 kmh SSW 9.2 mph14.8 kmh 25.01 in846.9 mb 0.00 in0.0 mm 0.00 in/hr0.0 mm/hr 0.00 in0.0 mm
01:49 AM 67.1°F19.5°C 18.0°F-7.8°C 15% 6.0 mph SSW9.7 kmh SSW 10.1 mph16.3 kmh 25.01 in846.9 mb 0.00 in0.0 mm 0.00 in/hr0.0 mm/hr 0.00 in0.0 mm
01:54 AM 67.3°F19.6°C 18.1°F-7.7°C 15% 7.0 mph SSW11.3 kmh SSW 9.6 mph15.4 kmh 25.01 in846.9 mb 0.00 in0.0 mm 0.00 in/hr0.0 mm/hr 0.00 in0.0 mm
01:59 AM 67.3°F19.6°C 18.1°F-7.7°C 15% 6.0 mph SSW9.7 kmh SSW 10.1 mph16.3 kmh 24.98 in845.9 mb 0.00 in0.0 mm 0.00 in/hr0.0 mm/hr 0.00 in0.0 mm
02:09 AM 67.3°F19.6°C 18.1°F-7.7°C 15% 2.0 mph S3.2 kmh S 5.8 mph9.3 kmh 24.98 in845.9 mb 0.00 in0.0 mm 0.00 in/hr0.0 mm/hr 0.00 in0.0 mm
02:14 AM 66.9°F19.4°C 17.8°F-7.9°C 15% 3.0 mph S4.8 kmh S 5.8 mph9.3 kmh 24.98 in845.9 mb 0.00 in0.0 mm 0.00 in/hr0.0 mm/hr 0.00 in0.0 mm
02:19 AM 66.7°F19.3°C 17.6°F-8.0°C 15% 4.0 mph SSE6.4 kmh SSE 8.3 mph13.4 kmh 24.98 in845.9 mb 0.00 in0.0 mm 0.00 in/hr0.0 mm/hr 0.00 in0.0 mm
02:24 AM 67.1°F19.5°C 18.0°F-7.8°C 15% 5.0 mph SSE8.0 kmh SSE 8.7 mph14.0 kmh 24.98 in845.9 mb 0.00 in0.0 mm 0.00 in/hr0.0 mm/hr 0.00 in0.0 mm
02:29 AM 67.8°F19.9°C 18.5°F-7.5°C 15% 6.0 mph SSE9.7 kmh SSE 11.6 mph18.7 kmh 24.98 in845.9 mb 0.00 in0.0 mm 0.00 in/hr0.0 mm/hr 0.00 in0.0 mm
02:34 AM 68.2°F20.1°C 13.6°F-10.2°C 12% 6.0 mph S9.7 kmh S 12.1 mph19.5 kmh 24.98 in845.9 mb 0.00 in0.0 mm 0.00 in/hr0.0 mm/hr 0.00 in0.0 mm
02:39 AM 68.0°F20.0°C 13.5°F-10.3°C 12% 6.0 mph S9.7 kmh S 11.2 mph18.0 kmh 24.98 in845.9 mb 0.00 in0.0 mm 0.00 in/hr0.0 mm/hr 0.00 in0.0 mm
02:44 AM 67.8°F19.9°C 13.5°F-10.3°C 12% 5.0 mph S8.0 kmh S 9.6 mph15.4 kmh 24.98 in845.9 mb 0.00 in0.0 mm 0.00 in/hr0.0 mm/hr 0.00 in0.0 mm
02:49 AM 67.3°F19.6°C 18.1°F-7.7°C 15% 5.0 mph S8.0 kmh S 10.5 mph16.9 kmh 24.98 in845.9 mb 0.00 in0.0 mm 0.00 in/hr0.0 mm/hr 0.00 in0.0 mm
02:54 AM 67.3°F19.6°C 18.1°F-7.7°C 15% 5.0 mph S8.0 kmh S 9.2 mph14.8 kmh 24.98 in845.9 mb 0.00 in0.0 mm 0.00 in/hr0.0 mm/hr 0.00 in0.0 mm
03:04 AM 67.1°F19.5°C 18.0°F-7.8°C 15% 4.0 mph S6.4 kmh S 6.9 mph11.1 kmh 24.98 in845.9 mb 0.00 in0.0 mm 0.00 in/hr0.0 mm/hr 0.00 in0.0 mm
03:09 AM 66.9°F19.4°C 17.8°F-7.9°C 15% 4.0 mph SSE6.4 kmh SSE 7.4 mph11.9 kmh 24.98 in845.9 mb 0.00 in0.0 mm 0.00 in/hr0.0 mm/hr 0.00 in0.0 mm
03:14 AM 66.4°F19.1°C 17.4°F-8.1°C 15% 4.0 mph SE6.4 kmh SE 6.3 mph10.1 kmh 24.98 in845.9 mb 0.00 in0.0 mm 0.00 in/hr0.0 mm/hr 0.00 in0.0 mm
03:19 AM 66.0°F18.9°C 17.1°F-8.3°C 15% 4.0 mph SE6.4 kmh SE 4.9 mph7.9 kmh 24.98 in845.9 mb 0.00 in0.0 mm 0.00 in/hr0.0 mm/hr 0.00 in0.0 mm
03:24 AM 66.2°F19.0°C 17.2°F-8.2°C 15% 4.0 mph ESE6.4 kmh ESE 5.4 mph8.7 kmh 24.98 in845.9 mb 0.00 in0.0 mm 0.00 in/hr0.0 mm/hr 0.00 in0.0 mm
03:29 AM 66.2°F19.0°C 17.2°F-8.2°C 15% 4.0 mph E6.4 kmh E 4.9 mph7.9 kmh 24.98 in845.9 mb 0.00 in0.0 mm 0.00 in/hr0.0 mm/hr 0.00 in0.0 mm
03:34 AM 66.2°F19.0°C 17.2°F-8.2°C 15% 3.0 mph E4.8 kmh E 4.5 mph7.2 kmh 24.98 in845.9 mb 0.00 in0.0 mm 0.00 in/hr0.0 mm/hr 0.00 in0.0 mm
03:39 AM 66.4°F19.1°C 17.4°F-8.1°C 15% 2.0 mph E3.2 kmh E 3.6 mph5.8 kmh 24.98 in845.9 mb 0.00 in0.0 mm 0.00 in/hr0.0 mm/hr 0.00 in0.0 mm
03:44 AM 66.2°F19.0°C 17.2°F-8.2°C 15% Calm Calm -- 24.98 in845.9 mb 0.00 in0.0 mm 0.00 in/hr0.0 mm/hr 0.00 in0.0 mm
03:50 AM 65.3°F18.5°C 19.4°F-7.0°C 17% 1.0 mph E1.6 kmh E 8.3 mph13.4 kmh 24.98 in845.9 mb 0.00 in0.0 mm 0.00 in/hr0.0 mm/hr 0.00 in0.0 mm
03:55 AM 63.9°F17.7°C 25.3°F-3.7°C 23% 4.0 mph NE6.4 kmh NE 7.4 mph11.9 kmh 24.98 in845.9 mb 0.00 in0.0 mm 0.00 in/hr0.0 mm/hr 0.00 in0.0 mm
04:00 AM 63.7°F17.6°C 25.2°F-3.8°C 23% 5.0 mph NNE8.0 kmh NNE 5.4 mph8.7 kmh 24.98 in845.9 mb 0.00 in0.0 mm 0.00 in/hr0.0 mm/hr 0.00 in0.0 mm
04:05 AM 63.5°F17.5°C 25.0°F-3.9°C 23% 2.0 mph NNE3.2 kmh NNE 3.6 mph5.8 kmh 24.98 in845.9 mb 0.00 in0.0 mm 0.00 in/hr0.0 mm/hr 0.00 in0.0 mm
04:10 AM 63.1°F17.3°C 25.7°F-3.5°C 24% 1.0 mph N1.6 kmh N 6.3 mph10.1 kmh 24.98 in845.9 mb 0.00 in0.0 mm 0.00 in/hr0.0 mm/hr 0.00 in0.0 mm
04:15 AM 62.2°F16.8°C 27.0°F-2.8°C 26% 3.0 mph NW4.8 kmh NW 6.3 mph10.1 kmh 24.98 in845.9 mb 0.00 in0.0 mm 0.00 in/hr0.0 mm/hr 0.00 in0.0 mm
04:20 AM 61.9°F16.6°C 28.4°F-2.0°C 28% 4.0 mph NW6.4 kmh NW 5.4 mph8.7 kmh 24.98 in845.9 mb 0.00 in0.0 mm 0.00 in/hr0.0 mm/hr 0.00 in0.0 mm
04:25 AM 61.5°F16.4°C 30.6°F-0.8°C 31% 4.0 mph WNW6.4 kmh WNW 5.4 mph8.7 kmh 24.98 in845.9 mb 0.00 in0.0 mm 0.00 in/hr0.0 mm/hr 0.00 in0.0 mm
04:30 AM 61.2°F16.2°C 30.2°F-1.0°C 31% 3.0 mph W4.8 kmh W 4.5 mph7.2 kmh 24.98 in845.9 mb 0.00 in0.0 mm 0.00 in/hr0.0 mm/hr 0.00 in0.0 mm
04:35 AM 61.0°F16.1°C 32.4°F0.2°C 34% 2.0 mph W3.2 kmh W 4.0 mph6.4 kmh 24.98 in845.9 mb 0.00 in0.0 mm 0.00 in/hr0.0 mm/hr 0.00 in0.0 mm
04:40 AM 61.0°F16.1°C 32.4°F0.2°C 34% 2.0 mph W3.2 kmh W 3.6 mph5.8 kmh 24.98 in845.9 mb 0.00 in0.0 mm 0.00 in/hr0.0 mm/hr 0.00 in0.0 mm
04:45 AM 61.0°F16.1°C 32.4°F0.2°C 34% 3.0 mph W4.8 kmh W 3.6 mph5.8 kmh 24.98 in845.9 mb 0.00 in0.0 mm 0.00 in/hr0.0 mm/hr 0.00 in0.0 mm
04:50 AM 61.0°F16.1°C 30.9°F-0.6°C 32% 2.0 mph WNW3.2 kmh WNW 4.5 mph7.2 kmh 24.98 in845.9 mb 0.00 in0.0 mm 0.00 in/hr0.0 mm/hr 0.00 in0.0 mm
04:55 AM 61.9°F16.6°C 30.9°F-0.6°C 31% 3.0 mph NNW4.8 kmh NNW 4.9 mph7.9 kmh 24.98 in845.9 mb 0.00 in0.0 mm 0.00 in/hr0.0 mm/hr 0.00 in0.0 mm
05:00 AM 61.3°F16.3°C 32.0°F0.0°C 33% 2.0 mph N3.2 kmh N 4.0 mph6.4 kmh 24.98 in845.9 mb 0.00 in0.0 mm 0.00 in/hr0.0 mm/hr 0.00 in0.0 mm
05:05 AM 61.0°F16.1°C 32.4°F0.2°C 34% 1.0 mph N1.6 kmh N 4.0 mph6.4 kmh 24.98 in845.9 mb 0.00 in0.0 mm 0.00 in/hr0.0 mm/hr 0.00 in0.0 mm
05:10 AM 60.6°F15.9°C 32.2°F0.1°C 34% Calm Calm 3.6 mph5.8 kmh 24.98 in845.9 mb 0.00 in0.0 mm 0.00 in/hr0.0 mm/hr 0.00 in0.0 mm
05:15 AM 61.0°F16.1°C 32.4°F0.2°C 34% 2.0 mph N3.2 kmh N 5.8 mph9.3 kmh 24.98 in845.9 mb 0.00 in0.0 mm 0.00 in/hr0.0 mm/hr 0.00 in0.0 mm
05:20 AM 62.6°F17.0°C 31.5°F-0.3°C 31% 4.0 mph NNE6.4 kmh NNE 6.3 mph10.1 kmh 24.98 in845.9 mb 0.00 in0.0 mm 0.00 in/hr0.0 mm/hr 0.00 in0.0 mm
05:25 AM 62.8°F17.1°C 30.9°F-0.6°C 30% 4.0 mph ENE6.4 kmh ENE 5.4 mph8.7 kmh 24.98 in845.9 mb 0.00 in0.0 mm 0.00 in/hr0.0 mm/hr 0.00 in0.0 mm
05:30 AM 61.7°F16.5°C 30.7°F-0.7°C 31% 2.0 mph ENE3.2 kmh ENE 4.0 mph6.4 kmh 24.98 in845.9 mb 0.00 in0.0 mm 0.00 in/hr0.0 mm/hr 0.00 in0.0 mm
05:36 AM 61.0°F16.1°C 31.6°F-0.2°C 33% Calm Calm -- 24.98 in845.9 mb 0.00 in0.0 mm 0.00 in/hr0.0 mm/hr 0.00 in0.0 mm
05:41 AM 60.3°F15.7°C 31.8°F-0.1°C 34% 1.0 mph NE1.6 kmh NE 6.3 mph10.1 kmh 24.98 in845.9 mb 0.00 in0.0 mm 0.00 in/hr0.0 mm/hr 0.00 in0.0 mm
05:46 AM 59.9°F15.5°C 31.5°F-0.3°C 34% 3.0 mph NNW4.8 kmh NNW 5.8 mph9.3 kmh 24.98 in845.9 mb 0.00 in0.0 mm 0.00 in/hr0.0 mm/hr 0.00 in0.0 mm
05:51 AM 59.9°F15.5°C 32.2°F0.1°C 35% 2.0 mph NW3.2 kmh NW 4.0 mph6.4 kmh 24.98 in845.9 mb 0.00 in0.0 mm 0.00 in/hr0.0 mm/hr 0.00 in0.0 mm
05:56 AM 60.1°F15.6°C 32.4°F0.2°C 35% 1.0 mph NW1.6 kmh NW 3.6 mph5.8 kmh 24.98 in845.9 mb 0.00 in0.0 mm 0.00 in/hr0.0 mm/hr 0.00 in0.0 mm
06:01 AM 60.8°F16.0°C 32.9°F0.5°C 35% 1.0 mph NW1.6 kmh NW 4.0 mph6.4 kmh 24.98 in845.9 mb 0.00 in0.0 mm 0.00 in/hr0.0 mm/hr 0.00 in0.0 mm
06:06 AM 63.1°F17.3°C 33.6°F0.9°C 33% 2.0 mph N3.2 kmh N 8.7 mph14.0 kmh 24.98 in845.9 mb 0.00 in0.0 mm 0.00 in/hr0.0 mm/hr 0.00 in0.0 mm
06:11 AM 62.1°F16.7°C 31.1°F-0.5°C 31% 5.0 mph E8.0 kmh E 10.5 mph16.9 kmh 24.98 in845.9 mb 0.00 in0.0 mm 0.00 in/hr0.0 mm/hr 0.00 in0.0 mm
06:16 AM 63.0°F17.2°C 31.1°F-0.5°C 30% 5.0 mph ESE8.0 kmh ESE 6.9 mph11.1 kmh 24.98 in845.9 mb 0.00 in0.0 mm 0.00 in/hr0.0 mm/hr 0.00 in0.0 mm
06:21 AM 62.6°F17.0°C 30.7°F-0.7°C 30% 5.0 mph ESE8.0 kmh ESE 7.8 mph12.6 kmh 24.98 in845.9 mb 0.00 in0.0 mm 0.00 in/hr0.0 mm/hr 0.00 in0.0 mm
06:26 AM 61.9°F16.6°C 30.9°F-0.6°C 31% 6.0 mph SE9.7 kmh SE 6.9 mph11.1 kmh 24.98 in845.9 mb 0.00 in0.0 mm 0.00 in/hr0.0 mm/hr 0.00 in0.0 mm
06:31 AM 63.3°F17.4°C 31.3°F-0.4°C 30% 6.0 mph SE9.7 kmh SE 8.3 mph13.4 kmh 24.98 in845.9 mb 0.00 in0.0 mm 0.00 in/hr0.0 mm/hr 0.00 in0.0 mm
06:36 AM 63.9°F17.7°C 30.2°F-1.0°C 28% 5.0 mph ESE8.0 kmh ESE 7.8 mph12.6 kmh 24.98 in845.9 mb 0.00 in0.0 mm 0.00 in/hr0.0 mm/hr 0.00 in0.0 mm
06:41 AM 64.0°F17.8°C 29.3°F-1.5°C 27% 5.0 mph E8.0 kmh E 8.7 mph14.0 kmh 24.98 in845.9 mb 0.00 in0.0 mm 0.00 in/hr0.0 mm/hr 0.00 in0.0 mm
06:46 AM 63.9°F17.7°C 29.3°F-1.5°C 27% 6.0 mph E9.7 kmh E 7.8 mph12.6 kmh 24.98 in845.9 mb 0.00 in0.0 mm 0.00 in/hr0.0 mm/hr 0.00 in0.0 mm
06:51 AM 63.5°F17.5°C 30.7°F-0.7°C 29% 6.0 mph ENE9.7 kmh ENE 8.7 mph14.0 kmh 24.98 in845.9 mb 0.00 in0.0 mm 0.00 in/hr0.0 mm/hr 0.00 in0.0 mm
06:56 AM 63.3°F17.4°C 30.6°F-0.8°C 29% 6.0 mph ENE9.7 kmh ENE 8.3 mph13.4 kmh 24.98 in845.9 mb 0.00 in0.0 mm 0.00 in/hr0.0 mm/hr 0.00 in0.0 mm
07:01 AM 63.1°F17.3°C 30.4°F-0.9°C 29% 6.0 mph ENE9.7 kmh ENE 10.5 mph16.9 kmh 24.98 in845.9 mb 0.00 in0.0 mm 0.00 in/hr0.0 mm/hr 0.00 in0.0 mm
07:06 AM 63.0°F17.2°C 30.2°F-1.0°C 29% 6.0 mph NE9.7 kmh NE 9.2 mph14.8 kmh 24.98 in845.9 mb 0.00 in0.0 mm 0.00 in/hr0.0 mm/hr 0.00 in0.0 mm
07:11 AM 63.0°F17.2°C 31.1°F-0.5°C 30% 6.0 mph ENE9.7 kmh ENE 9.2 mph14.8 kmh 24.95 in844.9 mb 0.00 in0.0 mm 0.00 in/hr0.0 mm/hr 0.00 in0.0 mm
07:16 AM 63.3°F17.4°C 31.3°F-0.4°C 30% 6.0 mph NE9.7 kmh NE 9.6 mph15.4 kmh 24.95 in844.9 mb 0.00 in0.0 mm 0.00 in/hr0.0 mm/hr 0.00 in0.0 mm
07:21 AM 63.5°F17.5°C 30.7°F-0.7°C 29% 7.0 mph NE11.3 kmh NE 11.6 mph18.7 kmh 24.95 in844.9 mb 0.00 in0.0 mm 0.00 in/hr0.0 mm/hr 0.00 in0.0 mm
07:26 AM 64.2°F17.9°C 30.4°F-0.9°C 28% 8.0 mph NE12.9 kmh NE 12.1 mph19.5 kmh 24.95 in844.9 mb 0.00 in0.0 mm 0.00 in/hr0.0 mm/hr 0.00 in0.0 mm
07:31 AM 65.8°F18.8°C 30.0°F-1.1°C 26% 8.0 mph NE12.9 kmh NE 10.5 mph16.9 kmh 24.95 in844.9 mb 0.00 in0.0 mm 0.00 in/hr0.0 mm/hr 0.00 in0.0 mm
07:36 AM 66.7°F19.3°C 29.8°F-1.2°C 25% 6.0 mph NE9.7 kmh NE 10.1 mph16.3 kmh 24.95 in844.9 mb 0.00 in0.0 mm 0.00 in/hr0.0 mm/hr 0.00 in0.0 mm
07:41 AM 70.7°F21.5°C 22.3°F-5.4°C 16% 6.0 mph ENE9.7 kmh ENE 13.4 mph21.6 kmh 24.95 in844.9 mb 0.00 in0.0 mm 0.00 in/hr0.0 mm/hr 0.00 in0.0 mm
07:46 AM 71.2°F21.8°C 14.0°F-10.0°C 11% 9.0 mph ESE14.5 kmh ESE 18.6 mph29.9 kmh 24.95 in844.9 mb 0.00 in0.0 mm 0.00 in/hr0.0 mm/hr 0.00 in0.0 mm
07:51 AM 72.1°F22.3°C 14.7°F-9.6°C 11% 11.0 mph SE17.7 kmh SE 19.0 mph30.6 kmh 24.95 in844.9 mb 0.00 in0.0 mm 0.00 in/hr0.0 mm/hr 0.00 in0.0 mm
07:56 AM 72.7°F22.6°C -5537.2°C - 14.0 mph SE22.5 kmh SE 19.5 mph31.4 kmh 24.92 in843.9 mb 0.00 in0.0 mm 0.00 in/hr0.0 mm/hr 0.00 in0.0 mm
08:01 AM 73.0°F22.8°C -5537.2°C - 13.0 mph ESE20.9 kmh ESE 15.4 mph24.8 kmh 24.92 in843.9 mb 0.00 in0.0 mm 0.00 in/hr0.0 mm/hr 0.00 in0.0 mm
08:06 AM 73.0°F22.8°C -5537.2°C - 12.0 mph ESE19.3 kmh ESE 19.0 mph30.6 kmh 24.92 in843.9 mb 0.00 in0.0 mm 0.00 in/hr0.0 mm/hr 0.00 in0.0 mm
08:11 AM 72.5°F22.5°C -5537.2°C - 13.0 mph ESE20.9 kmh ESE 19.9 mph32.0 kmh 24.92 in843.9 mb 0.00 in0.0 mm 0.00 in/hr0.0 mm/hr 0.00 in0.0 mm
08:16 AM 71.8°F22.1°C -5537.2°C - 14.0 mph ESE22.5 kmh ESE 20.1 mph32.3 kmh 24.92 in843.9 mb 0.00 in0.0 mm 0.00 in/hr0.0 mm/hr 0.00 in0.0 mm
08:21 AM 71.8°F22.1°C -5537.2°C - 13.0 mph SE20.9 kmh SE 17.2 mph27.7 kmh 24.92 in843.9 mb 0.00 in0.0 mm 0.00 in/hr0.0 mm/hr 0.00 in0.0 mm
08:27 AM 72.0°F22.2°C -5537.2°C - 13.0 mph ESE20.9 kmh ESE 19.0 mph30.6 kmh 24.92 in843.9 mb 0.00 in0.0 mm 0.00 in/hr0.0 mm/hr 0.00 in0.0 mm
08:32 AM 73.4°F23.0°C -5537.2°C - 13.0 mph ESE20.9 kmh ESE 20.1 mph32.3 kmh 24.92 in843.9 mb 0.00 in0.0 mm 0.00 in/hr0.0 mm/hr 0.00 in0.0 mm
08:37 AM 73.8°F23.2°C -5537.2°C - 13.0 mph ESE20.9 kmh ESE 19.5 mph31.4 kmh 24.92 in843.9 mb 0.00 in0.0 mm 0.00 in/hr0.0 mm/hr 0.00 in0.0 mm
08:42 AM 74.1°F23.4°C -5537.2°C - 13.0 mph ESE20.9 kmh ESE 19.0 mph30.6 kmh 24.92 in843.9 mb 0.00 in0.0 mm 0.00 in/hr0.0 mm/hr 0.00 in0.0 mm
08:47 AM 73.6°F23.1°C -5537.2°C - 12.0 mph ESE19.3 kmh ESE 15.9 mph25.6 kmh 24.92 in843.9 mb 0.00 in0.0 mm 0.00 in/hr0.0 mm/hr 0.00 in0.0 mm
08:52 AM 73.0°F22.8°C -5537.2°C - 12.0 mph ESE19.3 kmh ESE 19.9 mph32.0 kmh 24.92 in843.9 mb 0.00 in0.0 mm 0.00 in/hr0.0 mm/hr 0.00 in0.0 mm
08:57 AM 74.7°F23.7°C -5537.2°C - 13.0 mph ESE20.9 kmh ESE 18.6 mph29.9 kmh 24.92 in843.9 mb 0.00 in0.0 mm 0.00 in/hr0.0 mm/hr 0.00 in0.0 mm
09:02 AM 74.8°F23.8°C -5537.2°C - 13.0 mph SE20.9 kmh SE 21.0 mph33.8 kmh 24.92 in843.9 mb 0.00 in0.0 mm 0.00 in/hr0.0 mm/hr 0.00 in0.0 mm
09:07 AM 75.4°F24.1°C -5537.2°C - 13.0 mph ESE20.9 kmh ESE 19.5 mph31.4 kmh 24.92 in843.9 mb 0.00 in0.0 mm 0.00 in/hr0.0 mm/hr 0.00 in0.0 mm
09:12 AM 74.7°F23.7°C -5537.2°C - 13.0 mph ESE20.9 kmh ESE 19.0 mph30.6 kmh 24.92 in843.9 mb 0.00 in0.0 mm 0.00 in/hr0.0 mm/hr 0.00 in0.0 mm
09:17 AM 76.6°F24.8°C -5537.2°C - 13.0 mph ESE20.9 kmh ESE 19.9 mph32.0 kmh 24.92 in843.9 mb 0.00 in0.0 mm 0.00 in/hr0.0 mm/hr 0.00 in0.0 mm
09:22 AM 75.7°F24.3°C -5537.2°C - 12.0 mph ESE19.3 kmh ESE 19.0 mph30.6 kmh 24.92 in843.9 mb 0.00 in0.0 mm 0.00 in/hr0.0 mm/hr 0.00 in0.0 mm
09:27 AM 77.4°F25.2°C -5537.2°C - 12.0 mph ESE19.3 kmh ESE 17.2 mph27.7 kmh 24.92 in843.9 mb 0.00 in0.0 mm 0.00 in/hr0.0 mm/hr 0.00 in0.0 mm
09:32 AM 78.1°F25.6°C -5537.2°C - 10.0 mph ESE16.1 kmh ESE 14.8 mph23.8 kmh 24.92 in843.9 mb 0.00 in0.0 mm 0.00 in/hr0.0 mm/hr 0.00 in0.0 mm
09:37 AM 77.9°F25.5°C -5537.2°C - 8.0 mph ESE12.9 kmh ESE 14.3 mph23.0 kmh 24.92 in843.9 mb 0.00 in0.0 mm 0.00 in/hr0.0 mm/hr 0.00 in0.0 mm
09:42 AM 79.2°F26.2°C -5537.2°C - 7.0 mph SE11.3 kmh SE 12.1 mph19.5 kmh 24.89 in842.9 mb 0.00 in0.0 mm 0.00 in/hr0.0 mm/hr 0.00 in0.0 mm
09:47 AM 78.1°F25.6°C -5537.2°C - 7.0 mph S11.3 kmh S 14.8 mph23.8 kmh 24.89 in842.9 mb 0.00 in0.0 mm 0.00 in/hr0.0 mm/hr 0.00 in0.0 mm
09:52 AM 79.7°F26.5°C -5537.2°C - 8.0 mph S12.9 kmh S 15.2 mph24.5 kmh 24.89 in842.9 mb 0.00 in0.0 mm 0.00 in/hr0.0 mm/hr 0.00 in0.0 mm
09:57 AM 79.0°F26.1°C -5537.2°C - 9.0 mph S14.5 kmh S 14.8 mph23.8 kmh 24.89 in842.9 mb 0.00 in0.0 mm 0.00 in/hr0.0 mm/hr 0.00 in0.0 mm
10:02 AM 77.9°F25.5°C -5537.2°C - 8.0 mph S12.9 kmh S 13.4 mph21.6 kmh 24.89 in842.9 mb 0.00 in0.0 mm 0.00 in/hr0.0 mm/hr 0.00 in0.0 mm
10:07 AM 77.9°F25.5°C -5537.2°C - 8.0 mph S12.9 kmh S 14.3 mph23.0 kmh 24.89 in842.9 mb 0.00 in0.0 mm 0.00 in/hr0.0 mm/hr 0.00 in0.0 mm
10:12 AM 78.3°F25.7°C -5537.2°C - 9.0 mph S14.5 kmh S 15.2 mph24.5 kmh 24.89 in842.9 mb 0.00 in0.0 mm 0.00 in/hr0.0 mm/hr 0.00 in0.0 mm
10:17 AM 77.2°F25.1°C -5537.2°C - 9.0 mph S14.5 kmh S 22.4 mph36.0 kmh 24.89 in842.9 mb 0.00 in0.0 mm 0.00 in/hr0.0 mm/hr 0.00 in0.0 mm
10:22 AM 77.0°F25.0°C -5537.2°C - 9.0 mph S14.5 kmh S 17.2 mph27.7 kmh 24.89 in842.9 mb 0.00 in0.0 mm 0.00 in/hr0.0 mm/hr 0.00 in0.0 mm
10:27 AM 76.3°F24.6°C -5537.2°C - 8.0 mph SSE12.9 kmh SSE 12.1 mph19.5 kmh 24.89 in842.9 mb 0.00 in0.0 mm 0.00 in/hr0.0 mm/hr 0.00 in0.0 mm
10:32 AM 76.3°F24.6°C -5537.2°C - 8.0 mph S12.9 kmh S 20.1 mph32.3 kmh 24.89 in842.9 mb 0.00 in0.0 mm 0.00 in/hr0.0 mm/hr 0.00 in0.0 mm
10:37 AM 76.3°F24.6°C -5537.2°C - 12.0 mph S19.3 kmh S 21.0 mph33.8 kmh 24.89 in842.9 mb 0.00 in0.0 mm 0.00 in/hr0.0 mm/hr 0.00 in0.0 mm
10:42 AM 76.8°F24.9°C -5537.2°C - 13.0 mph SSW20.9 kmh SSW 17.2 mph27.7 kmh 24.89 in842.9 mb 0.00 in0.0 mm 0.00 in/hr0.0 mm/hr 0.00 in0.0 mm
10:47 AM 77.2°F25.1°C -5537.2°C - 10.0 mph SSW16.1 kmh SSW 15.4 mph24.8 kmh 24.89 in842.9 mb 0.00 in0.0 mm 0.00 in/hr0.0 mm/hr 0.00 in0.0 mm
10:52 AM 78.1°F25.6°C -5537.2°C - 8.0 mph SSW12.9 kmh SSW 11.2 mph18.0 kmh 24.89 in842.9 mb 0.00 in0.0 mm 0.00 in/hr0.0 mm/hr 0.00 in0.0 mm
10:57 AM 78.3°F25.7°C -5537.2°C - 6.0 mph S9.7 kmh S 10.5 mph16.9 kmh 24.86 in841.9 mb 0.00 in0.0 mm 0.00 in/hr0.0 mm/hr 0.00 in0.0 mm
11:02 AM 77.7°F25.4°C -5537.2°C - 7.0 mph S11.3 kmh S 20.6 mph33.2 kmh 24.86 in841.9 mb 0.00 in0.0 mm 0.00 in/hr0.0 mm/hr 0.00 in0.0 mm
11:07 AM 77.4°F25.2°C -5537.2°C - 9.0 mph S14.5 kmh S 17.2 mph27.7 kmh 24.86 in841.9 mb 0.00 in0.0 mm 0.00 in/hr0.0 mm/hr 0.00 in0.0 mm
11:12 AM 77.2°F25.1°C -5537.2°C - 10.0 mph S16.1 kmh S 22.8 mph36.7 kmh 24.86 in841.9 mb 0.00 in0.0 mm 0.00 in/hr0.0 mm/hr 0.00 in0.0 mm
11:17 AM 77.2°F25.1°C -5537.2°C - 11.0 mph SSW17.7 kmh SSW 19.5 mph31.4 kmh 24.86 in841.9 mb 0.00 in0.0 mm 0.00 in/hr0.0 mm/hr 0.00 in0.0 mm
11:22 AM 77.0°F25.0°C -5537.2°C - 10.0 mph S16.1 kmh S 17.7 mph28.5 kmh 24.86 in841.9 mb 0.00 in0.0 mm 0.00 in/hr0.0 mm/hr 0.00 in0.0 mm
11:27 AM 77.5°F25.3°C -5537.2°C - 9.0 mph S14.5 kmh S 17.2 mph27.7 kmh 24.86 in841.9 mb 0.00 in0.0 mm 0.00 in/hr0.0 mm/hr 0.00 in0.0 mm
11:32 AM 77.2°F25.1°C -5537.2°C - 8.0 mph S12.9 kmh S 15.9 mph25.6 kmh 24.86 in841.9 mb 0.00 in0.0 mm 0.00 in/hr0.0 mm/hr 0.00 in0.0 mm
11:37 AM 77.4°F25.2°C -5537.2°C - 9.0 mph S14.5 kmh S 25.3 mph40.7 kmh 24.86 in841.9 mb 0.00 in0.0 mm 0.00 in/hr0.0 mm/hr 0.00 in0.0 mm
11:42 AM 77.9°F25.5°C -5537.2°C - 10.0 mph S16.1 kmh S 15.2 mph24.5 kmh 24.83 in840.8 mb 0.00 in0.0 mm 0.00 in/hr0.0 mm/hr 0.00 in0.0 mm
11:48 AM 77.7°F25.4°C -5537.2°C - 10.0 mph S16.1 kmh S 22.4 mph36.0 kmh 24.83 in840.8 mb 0.00 in0.0 mm 0.00 in/hr0.0 mm/hr 0.00 in0.0 mm
11:53 AM 77.7°F25.4°C -5537.2°C - 11.0 mph S17.7 kmh S 21.9 mph35.2 kmh 24.83 in840.8 mb 0.00 in0.0 mm 0.00 in/hr0.0 mm/hr 0.00 in0.0 mm
11:58 AM 77.4°F25.2°C -5537.2°C - 12.0 mph SSW19.3 kmh SSW 24.2 mph38.9 kmh 24.83 in840.8 mb 0.00 in0.0 mm 0.00 in/hr0.0 mm/hr 0.00 in0.0 mm
12:03 PM 77.4°F25.2°C -5537.2°C - 12.0 mph S19.3 kmh S 17.2 mph27.7 kmh 24.83 in840.8 mb 0.00 in0.0 mm 0.00 in/hr0.0 mm/hr 0.00 in0.0 mm
12:08 PM 77.9°F25.5°C -5537.2°C - 10.0 mph S16.1 kmh S 13.4 mph21.6 kmh 24.83 in840.8 mb 0.00 in0.0 mm 0.00 in/hr0.0 mm/hr 0.00 in0.0 mm
12:13 PM 77.9°F25.5°C -5537.2°C - 10.0 mph S16.1 kmh S 17.7 mph28.5 kmh 24.83 in840.8 mb 0.00 in0.0 mm 0.00 in/hr0.0 mm/hr 0.00 in0.0 mm
12:18 PM 77.7°F25.4°C -5537.2°C - 10.0 mph S16.1 kmh S 17.2 mph27.7 kmh 24.83 in840.8 mb 0.00 in0.0 mm 0.00 in/hr0.0 mm/hr 0.00 in0.0 mm
12:23 PM 77.5°F25.3°C -5537.2°C - 11.0 mph S17.7 kmh S 31.8 mph51.2 kmh 24.83 in840.8 mb 0.00 in0.0 mm 0.00 in/hr0.0 mm/hr 0.00 in0.0 mm
12:28 PM 77.9°F25.5°C -5537.2°C - 14.0 mph S22.5 kmh S 21.5 mph34.6 kmh 24.83 in840.8 mb 0.00 in0.0 mm 0.00 in/hr0.0 mm/hr 0.00 in0.0 mm
12:33 PM 77.5°F25.3°C -5537.2°C - 13.0 mph S20.9 kmh S 27.1 mph43.6 kmh 24.83 in840.8 mb 0.00 in0.0 mm 0.00 in/hr0.0 mm/hr 0.00 in0.0 mm
12:38 PM 77.4°F25.2°C -5537.2°C - 14.0 mph S22.5 kmh S 26.2 mph42.2 kmh 24.83 in840.8 mb 0.00 in0.0 mm 0.00 in/hr0.0 mm/hr 0.00 in0.0 mm
12:43 PM 77.2°F25.1°C -5537.2°C - 14.0 mph S22.5 kmh S 21.9 mph35.2 kmh 24.83 in840.8 mb 0.00 in0.0 mm 0.00 in/hr0.0 mm/hr 0.00 in0.0 mm
12:48 PM 77.4°F25.2°C -5537.2°C - 11.0 mph S17.7 kmh S 16.3 mph26.2 kmh 24.83 in840.8 mb 0.00 in0.0 mm 0.00 in/hr0.0 mm/hr 0.00 in0.0 mm
12:53 PM 78.1°F25.6°C -5537.2°C - 10.0 mph S16.1 kmh S 17.2 mph27.7 kmh 24.83 in840.8 mb 0.00 in0.0 mm 0.00 in/hr0.0 mm/hr 0.00 in0.0 mm
12:58 PM 77.7°F25.4°C -5537.2°C - 10.0 mph S16.1 kmh S 20.1 mph32.3 kmh 24.80 in839.8 mb 0.00 in0.0 mm 0.00 in/hr0.0 mm/hr 0.00 in0.0 mm
01:03 PM 77.5°F25.3°C -5537.2°C - 10.0 mph SSW16.1 kmh SSW 14.8 mph23.8 kmh 24.80 in839.8 mb 0.00 in0.0 mm 0.00 in/hr0.0 mm/hr 0.00 in0.0 mm
01:08 PM 77.7°F25.4°C -5537.2°C - 7.0 mph SW11.3 kmh SW 14.8 mph23.8 kmh 24.80 in839.8 mb 0.00 in0.0 mm 0.00 in/hr0.0 mm/hr 0.00 in0.0 mm
01:13 PM 77.9°F25.5°C -5537.2°C - 8.0 mph SSW12.9 kmh SSW 15.4 mph24.8 kmh 24.80 in839.8 mb 0.00 in0.0 mm 0.00 in/hr0.0 mm/hr 0.00 in0.0 mm
01:18 PM 77.7°F25.4°C -5537.2°C - 8.0 mph SW12.9 kmh SW 13.4 mph21.6 kmh 24.80 in839.8 mb 0.00 in0.0 mm 0.00 in/hr0.0 mm/hr 0.00 in0.0 mm
01:23 PM 77.5°F25.3°C -5537.2°C - 5.0 mph SW8.0 kmh SW 7.4 mph11.9 kmh 24.80 in839.8 mb 0.00 in0.0 mm 0.00 in/hr0.0 mm/hr 0.00 in0.0 mm
01:28 PM 77.0°F25.0°C -5537.2°C - 5.0 mph SW8.0 kmh SW 15.4 mph24.8 kmh 24.80 in839.8 mb 0.00 in0.0 mm 0.00 in/hr0.0 mm/hr 0.00 in0.0 mm
01:33 PM 76.3°F24.6°C -5537.2°C - 8.0 mph SW12.9 kmh SW 16.8 mph27.0 kmh 24.80 in839.8 mb 0.00 in0.0 mm 0.00 in/hr0.0 mm/hr 0.00 in0.0 mm
01:38 PM 77.0°F25.0°C -5537.2°C - 7.0 mph SW11.3 kmh SW 9.2 mph14.8 kmh 24.80 in839.8 mb 0.00 in0.0 mm 0.00 in/hr0.0 mm/hr 0.00 in0.0 mm
01:43 PM 78.6°F25.9°C -5537.2°C - 6.0 mph SW9.7 kmh SW 12.1 mph19.5 kmh 24.77 in838.8 mb 0.00 in0.0 mm 0.00 in/hr0.0 mm/hr 0.00 in0.0 mm
01:49 PM 77.7°F25.4°C -5537.2°C - 7.0 mph WSW11.3 kmh WSW 15.2 mph24.5 kmh 24.77 in838.8 mb 0.00 in0.0 mm 0.00 in/hr0.0 mm/hr 0.00 in0.0 mm
01:54 PM 77.7°F25.4°C -5537.2°C - 9.0 mph SW14.5 kmh SW 14.8 mph23.8 kmh 24.77 in838.8 mb 0.00 in0.0 mm 0.00 in/hr0.0 mm/hr 0.00 in0.0 mm
01:59 PM 77.2°F25.1°C -5537.2°C - 8.0 mph SW12.9 kmh SW 12.1 mph19.5 kmh 24.77 in838.8 mb 0.00 in0.0 mm 0.00 in/hr0.0 mm/hr 0.00 in0.0 mm
02:04 PM 77.0°F25.0°C -5537.2°C - 6.0 mph SSW9.7 kmh SSW 11.6 mph18.7 kmh 24.77 in838.8 mb 0.00 in0.0 mm 0.00 in/hr0.0 mm/hr 0.00 in0.0 mm
02:09 PM 78.3°F25.7°C -5537.2°C - 3.0 mph SSW4.8 kmh SSW 6.9 mph11.1 kmh 24.77 in838.8 mb 0.00 in0.0 mm 0.00 in/hr0.0 mm/hr 0.00 in0.0 mm
02:14 PM 79.5°F26.4°C -5537.2°C - 2.0 mph SSW3.2 kmh SSW 7.8 mph12.6 kmh 24.77 in838.8 mb 0.00 in0.0 mm 0.00 in/hr0.0 mm/hr 0.00 in0.0 mm
02:19 PM 78.3°F25.7°C -5537.2°C - 6.0 mph SSE9.7 kmh SSE 19.5 mph31.4 kmh 24.77 in838.8 mb 0.00 in0.0 mm 0.00 in/hr0.0 mm/hr 0.00 in0.0 mm
02:24 PM 75.7°F24.3°C -5537.2°C - 12.0 mph E19.3 kmh E 23.7 mph38.1 kmh 24.77 in838.8 mb 0.00 in0.0 mm 0.00 in/hr0.0 mm/hr 0.00 in0.0 mm
02:29 PM 75.9°F24.4°C -5537.2°C - 14.0 mph ENE22.5 kmh ENE 20.6 mph33.2 kmh 24.77 in838.8 mb 0.00 in0.0 mm 0.00 in/hr0.0 mm/hr 0.00 in0.0 mm
02:34 PM 75.9°F24.4°C -5537.2°C - 11.0 mph NNE17.7 kmh NNE 14.8 mph23.8 kmh 24.77 in838.8 mb 0.00 in0.0 mm 0.00 in/hr0.0 mm/hr 0.00 in0.0 mm
02:39 PM 75.6°F24.2°C -5537.2°C - 10.0 mph N16.1 kmh N 16.3 mph26.2 kmh 24.77 in838.8 mb 0.00 in0.0 mm 0.00 in/hr0.0 mm/hr 0.00 in0.0 mm
02:44 PM 74.1°F23.4°C -5537.2°C - 13.0 mph NNE20.9 kmh NNE 21.0 mph33.8 kmh 24.75 in838.1 mb 0.00 in0.0 mm 0.00 in/hr0.0 mm/hr 0.00 in0.0 mm
02:49 PM 73.9°F23.3°C -5537.2°C - 14.0 mph N22.5 kmh N 20.1 mph32.3 kmh 24.75 in838.1 mb 0.00 in0.0 mm 0.00 in/hr0.0 mm/hr 0.00 in0.0 mm
02:54 PM 73.6°F23.1°C -5537.2°C - 14.0 mph N22.5 kmh N 19.5 mph31.4 kmh 24.75 in838.1 mb 0.00 in0.0 mm 0.00 in/hr0.0 mm/hr 0.00 in0.0 mm
02:59 PM 72.7°F22.6°C -5537.2°C - 14.0 mph N22.5 kmh N 20.6 mph33.2 kmh 24.75 in838.1 mb 0.00 in0.0 mm 0.00 in/hr0.0 mm/hr 0.00 in0.0 mm
03:04 PM 73.0°F22.8°C -5537.2°C - 14.0 mph N22.5 kmh N 19.0 mph30.6 kmh 24.75 in838.1 mb 0.00 in0.0 mm 0.00 in/hr0.0 mm/hr 0.00 in0.0 mm
03:09 PM 73.0°F22.8°C -5537.2°C - 13.0 mph N20.9 kmh N 17.7 mph28.5 kmh 24.75 in838.1 mb 0.00 in0.0 mm 0.00 in/hr0.0 mm/hr 0.00 in0.0 mm
03:14 PM 72.9°F22.7°C -5537.2°C - 11.0 mph N17.7 kmh N 13.4 mph21.6 kmh 24.75 in838.1 mb 0.00 in0.0 mm 0.00 in/hr0.0 mm/hr 0.00 in0.0 mm
03:19 PM 72.3°F22.4°C -5537.2°C - 9.0 mph NW14.5 kmh NW 13.4 mph21.6 kmh 24.75 in838.1 mb 0.00 in0.0 mm 0.00 in/hr0.0 mm/hr 0.00 in0.0 mm
03:24 PM 71.8°F22.1°C -5537.2°C - 9.0 mph NW14.5 kmh NW 13.9 mph22.4 kmh 24.75 in838.1 mb 0.00 in0.0 mm 0.00 in/hr0.0 mm/hr 0.00 in0.0 mm
03:29 PM 71.6°F22.0°C -5537.2°C - 9.0 mph NW14.5 kmh NW 14.3 mph23.0 kmh 24.75 in838.1 mb 0.00 in0.0 mm 0.00 in/hr0.0 mm/hr 0.00 in0.0 mm
03:34 PM 71.4°F21.9°C -5537.2°C - 9.0 mph WNW14.5 kmh WNW 13.9 mph22.4 kmh 24.75 in838.1 mb 0.00 in0.0 mm 0.00 in/hr0.0 mm/hr 0.00 in0.0 mm
03:39 PM 68.5°F20.3°C 14.0°F-10.0°C 12% 14.0 mph W22.5 kmh W 33.3 mph53.6 kmh 24.75 in838.1 mb 0.00 in0.0 mm 0.00 in/hr0.0 mm/hr 0.00 in0.0 mm
03:44 PM 64.9°F18.3°C 30.2°F-1.0°C 27% 17.0 mph WSW27.4 kmh WSW 28.6 mph46.0 kmh 24.77 in838.8 mb 0.00 in0.0 mm 0.00 in/hr0.0 mm/hr 0.00 in0.0 mm
03:49 PM 62.6°F17.0°C 33.8°F1.0°C 34% 21.0 mph WSW33.8 kmh WSW 43.2 mph69.5 kmh 24.77 in838.8 mb 0.00 in0.0 mm 0.00 in/hr0.0 mm/hr 0.00 in0.0 mm
03:54 PM 61.2°F16.2°C 34.0°F1.1°C 36% 27.0 mph SW43.5 kmh SW 42.3 mph68.1 kmh 24.77 in838.8 mb 0.00 in0.0 mm 0.00 in/hr0.0 mm/hr 0.00 in0.0 mm
03:59 PM 60.6°F15.9°C 34.2°F1.2°C 37% 29.0 mph SW46.7 kmh SW 43.2 mph69.5 kmh 24.77 in838.8 mb 0.00 in0.0 mm 0.00 in/hr0.0 mm/hr 0.00 in0.0 mm
04:04 PM 60.1°F15.6°C 34.3°F1.3°C 38% 30.0 mph SW48.3 kmh SW 51.2 mph82.4 kmh 24.77 in838.8 mb 0.00 in0.0 mm 0.00 in/hr0.0 mm/hr 0.00 in0.0 mm
04:16 PM 59.5°F15.3°C 35.8°F2.1°C 41% 30.0 mph SW48.3 kmh SW 45.4 mph73.1 kmh 24.80 in839.8 mb 0.00 in0.0 mm 0.00 in/hr0.0 mm/hr 0.00 in0.0 mm
04:21 PM 59.5°F15.3°C 35.2°F1.8°C 40% 30.0 mph SW48.3 kmh SW 44.5 mph71.6 kmh 24.80 in839.8 mb 0.00 in0.0 mm 0.00 in/hr0.0 mm/hr 0.00 in0.0 mm
04:26 PM 59.4°F15.2°C 37.4°F3.0°C 44% 29.0 mph SW46.7 kmh SW 48.8 mph78.5 kmh 24.77 in838.8 mb 0.00 in0.0 mm 0.00 in/hr0.0 mm/hr 0.00 in0.0 mm
04:32 PM 59.0°F15.0°C 38.3°F3.5°C 46% 27.0 mph SW43.5 kmh SW 37.6 mph60.5 kmh 24.77 in838.8 mb 0.00 in0.0 mm 0.00 in/hr0.0 mm/hr 0.00 in0.0 mm
04:37 PM 58.8°F14.9°C 38.7°F3.7°C 47% 25.0 mph SW40.2 kmh SW 41.2 mph66.3 kmh 24.77 in838.8 mb 0.00 in0.0 mm 0.00 in/hr0.0 mm/hr 0.00 in0.0 mm
04:42 PM 59.0°F15.0°C 39.9°F4.4°C 49% 25.0 mph SW40.2 kmh SW 37.4 mph60.2 kmh 24.77 in838.8 mb 0.00 in0.0 mm 0.00 in/hr0.0 mm/hr 0.00 in0.0 mm
04:47 PM 59.2°F15.1°C 40.1°F4.5°C 49% 25.0 mph SW40.2 kmh SW 38.9 mph62.6 kmh 24.77 in838.8 mb 0.00 in0.0 mm 0.00 in/hr0.0 mm/hr 0.00 in0.0 mm
04:52 PM 59.4°F15.2°C 40.6°F4.8°C 50% 25.0 mph SW40.2 kmh SW 40.7 mph65.5 kmh 24.77 in838.8 mb 0.00 in0.0 mm 0.00 in/hr0.0 mm/hr 0.00 in0.0 mm
04:57 PM 59.4°F15.2°C 40.3°F4.6°C 49% 24.0 mph SW38.6 kmh SW 42.3 mph68.1 kmh 24.80 in839.8 mb 0.00 in0.0 mm 0.00 in/hr0.0 mm/hr 0.00 in0.0 mm
05:02 PM 59.2°F15.1°C 40.1°F4.5°C 49% 22.0 mph SW35.4 kmh SW 36.5 mph58.7 kmh 24.80 in839.8 mb 0.00 in0.0 mm 0.00 in/hr0.0 mm/hr 0.00 in0.0 mm
05:07 PM 59.2°F15.1°C 40.1°F4.5°C 49% 17.0 mph WSW27.4 kmh WSW 24.4 mph39.3 kmh 24.80 in839.8 mb 0.00 in0.0 mm 0.00 in/hr0.0 mm/hr 0.00 in0.0 mm
05:12 PM 58.5°F14.7°C 41.4°F5.2°C 53% 12.0 mph SW19.3 kmh SW 23.7 mph38.1 kmh 24.86 in841.9 mb 0.00 in0.0 mm 0.00 in/hr0.0 mm/hr 0.00 in0.0 mm
05:17 PM 57.2°F14.0°C 43.5°F6.4°C 60% 15.0 mph NE24.1 kmh NE 26.6 mph42.8 kmh 24.86 in841.9 mb 0.00 in0.0 mm 0.00 in/hr0.0 mm/hr 0.00 in0.0 mm
05:22 PM 56.8°F13.8°C 42.6°F5.9°C 59% 19.0 mph N30.6 kmh N 32.7 mph52.6 kmh 24.86 in841.9 mb 0.00 in0.0 mm 0.00 in/hr0.0 mm/hr 0.00 in0.0 mm
05:27 PM 57.4°F14.1°C 41.9°F5.5°C 56% 17.0 mph N27.4 kmh N 19.5 mph31.4 kmh 24.86 in841.9 mb 0.00 in0.0 mm 0.00 in/hr0.0 mm/hr 0.00 in0.0 mm
05:32 PM 57.7°F14.3°C 40.6°F4.8°C 53% 12.0 mph NNW19.3 kmh NNW 17.7 mph28.5 kmh 24.86 in841.9 mb 0.00 in0.0 mm 0.00 in/hr0.0 mm/hr 0.00 in0.0 mm
05:37 PM 58.3°F14.6°C 39.7°F4.3°C 50% 10.0 mph NW16.1 kmh NW 14.3 mph23.0 kmh 24.86 in841.9 mb 0.00 in0.0 mm 0.00 in/hr0.0 mm/hr 0.00 in0.0 mm
05:42 PM 57.9°F14.4°C 39.9°F4.4°C 51% 8.0 mph WNW12.9 kmh WNW 14.8 mph23.8 kmh 24.86 in841.9 mb 0.00 in0.0 mm 0.00 in/hr0.0 mm/hr 0.00 in0.0 mm
05:47 PM 57.0°F13.9°C 40.1°F4.5°C 53% 11.0 mph NW17.7 kmh NW 21.9 mph35.2 kmh 24.86 in841.9 mb 0.00 in0.0 mm 0.00 in/hr0.0 mm/hr 0.00 in0.0 mm
05:52 PM 56.7°F13.7°C 40.3°F4.6°C 54% 12.0 mph NNW19.3 kmh NNW 16.3 mph26.2 kmh 24.86 in841.9 mb 0.00 in0.0 mm 0.00 in/hr0.0 mm/hr 0.00 in0.0 mm
05:57 PM 56.3°F13.5°C 40.3°F4.6°C 55% 13.0 mph N20.9 kmh N 20.6 mph33.2 kmh 24.86 in841.9 mb 0.00 in0.0 mm 0.00 in/hr0.0 mm/hr 0.00 in0.0 mm
06:02 PM 56.1°F13.4°C 40.6°F4.8°C 56% 12.0 mph N19.3 kmh N 17.7 mph28.5 kmh 24.86 in841.9 mb 0.00 in0.0 mm 0.00 in/hr0.0 mm/hr 0.00 in0.0 mm
06:07 PM 56.1°F13.4°C 41.2°F5.1°C 57% 10.0 mph NW16.1 kmh NW 16.3 mph26.2 kmh 24.86 in841.9 mb 0.00 in0.0 mm 0.00 in/hr0.0 mm/hr 0.00 in0.0 mm
06:12 PM 56.1°F13.4°C 41.5°F5.3°C 58% 10.0 mph NW16.1 kmh NW 13.0 mph20.9 kmh 24.83 in840.8 mb 0.00 in0.0 mm 0.00 in/hr0.0 mm/hr 0.00 in0.0 mm
06:17 PM 55.9°F13.3°C 42.3°F5.7°C 60% 10.0 mph NW16.1 kmh NW 15.4 mph24.8 kmh 24.83 in840.8 mb 0.00 in0.0 mm 0.00 in/hr0.0 mm/hr 0.00 in0.0 mm
06:22 PM 55.9°F13.3°C 42.3°F5.7°C 60% 10.0 mph NW16.1 kmh NW 14.3 mph23.0 kmh 24.83 in840.8 mb 0.00 in0.0 mm 0.00 in/hr0.0 mm/hr 0.00 in0.0 mm
06:27 PM 55.9°F13.3°C 41.9°F5.5°C 59% 10.0 mph NW16.1 kmh NW 13.4 mph21.6 kmh 24.86 in841.9 mb 0.00 in0.0 mm 0.00 in/hr0.0 mm/hr 0.00 in0.0 mm
06:32 PM 56.1°F13.4°C 41.9°F5.5°C 59% 9.0 mph NW14.5 kmh NW 11.2 mph18.0 kmh 24.86 in841.9 mb 0.00 in0.0 mm 0.00 in/hr0.0 mm/hr 0.00 in0.0 mm
06:37 PM 56.1°F13.4°C 41.5°F5.3°C 58% 8.0 mph NW12.9 kmh NW 12.1 mph19.5 kmh 24.86 in841.9 mb 0.00 in0.0 mm 0.00 in/hr0.0 mm/hr 0.00 in0.0 mm
06:42 PM 55.8°F13.2°C 41.7°F5.4°C 59% 9.0 mph NW14.5 kmh NW 12.1 mph19.5 kmh 24.83 in840.8 mb 0.00 in0.0 mm 0.00 in/hr0.0 mm/hr 0.00 in0.0 mm
06:47 PM 55.8°F13.2°C 42.1°F5.6°C 60% 9.0 mph WNW14.5 kmh WNW 14.3 mph23.0 kmh 24.83 in840.8 mb 0.00 in0.0 mm 0.00 in/hr0.0 mm/hr 0.00 in0.0 mm
06:53 PM 55.8°F13.2°C 42.1°F5.6°C 60% 8.0 mph NW12.9 kmh NW 8.7 mph14.0 kmh 24.83 in840.8 mb 0.00 in0.0 mm 0.00 in/hr0.0 mm/hr 0.00 in0.0 mm
06:58 PM 55.8°F13.2°C 42.1°F5.6°C 60% 7.0 mph N11.3 kmh N 11.2 mph18.0 kmh 24.83 in840.8 mb 0.00 in0.0 mm 0.00 in/hr0.0 mm/hr 0.00 in0.0 mm
07:03 PM 55.6°F13.1°C 43.2°F6.2°C 63% 8.0 mph NNE12.9 kmh NNE 11.2 mph18.0 kmh 24.83 in840.8 mb 0.00 in0.0 mm 0.00 in/hr0.0 mm/hr 0.00 in0.0 mm
07:15 PM 55.6°F13.1°C 43.2°F6.2°C 63% 3.0 mph E4.8 kmh E 6.7 mph10.8 kmh 24.83 in840.8 mb 0.00 in0.0 mm 0.00 in/hr0.0 mm/hr 0.00 in0.0 mm
07:20 PM 55.6°F13.1°C 42.8°F6.0°C 62% 2.0 mph E3.2 kmh E 5.8 mph9.3 kmh 24.83 in840.8 mb 0.00 in0.0 mm 0.00 in/hr0.0 mm/hr 0.00 in0.0 mm
07:25 PM 55.8°F13.2°C 42.4°F5.8°C 61% 2.0 mph ESE3.2 kmh ESE 7.4 mph11.9 kmh 24.83 in840.8 mb 0.00 in0.0 mm 0.00 in/hr0.0 mm/hr 0.00 in0.0 mm
07:30 PM 55.9°F13.3°C 42.6°F5.9°C 61% 5.0 mph SE8.0 kmh SE 8.7 mph14.0 kmh 24.83 in840.8 mb 0.00 in0.0 mm 0.00 in/hr0.0 mm/hr 0.00 in0.0 mm
07:35 PM 55.9°F13.3°C 42.6°F5.9°C 61% 5.0 mph SE8.0 kmh SE 8.7 mph14.0 kmh 24.83 in840.8 mb 0.00 in0.0 mm 0.00 in/hr0.0 mm/hr 0.00 in0.0 mm
07:40 PM 55.9°F13.3°C 42.6°F5.9°C 61% 3.0 mph SE4.8 kmh SE 6.7 mph10.8 kmh 24.83 in840.8 mb 0.00 in0.0 mm 0.00 in/hr0.0 mm/hr 0.00 in0.0 mm
07:46 PM 55.9°F13.3°C 42.3°F5.7°C 60% 2.0 mph SE3.2 kmh SE 6.3 mph10.1 kmh 24.83 in840.8 mb 0.00 in0.0 mm 0.00 in/hr0.0 mm/hr 0.00 in0.0 mm
07:51 PM 55.9°F13.3°C 42.3°F5.7°C 60% 4.0 mph ESE6.4 kmh ESE 5.8 mph9.3 kmh 24.83 in840.8 mb 0.00 in0.0 mm 0.00 in/hr0.0 mm/hr 0.00 in0.0 mm
07:56 PM 55.9°F13.3°C 42.3°F5.7°C 60% 4.0 mph ESE6.4 kmh ESE 6.9 mph11.1 kmh 24.83 in840.8 mb 0.00 in0.0 mm 0.00 in/hr0.0 mm/hr 0.00 in0.0 mm
08:01 PM 55.9°F13.3°C 42.3°F5.7°C 60% 4.0 mph E6.4 kmh E 6.9 mph11.1 kmh 24.83 in840.8 mb 0.00 in0.0 mm 0.00 in/hr0.0 mm/hr 0.00 in0.0 mm
08:06 PM 55.9°F13.3°C 42.3°F5.7°C 60% 4.0 mph E6.4 kmh E 6.7 mph10.8 kmh 24.83 in840.8 mb 0.00 in0.0 mm 0.00 in/hr0.0 mm/hr 0.00 in0.0 mm
08:11 PM 55.9°F13.3°C 41.9°F5.5°C 59% 2.0 mph E3.2 kmh E 4.9 mph7.9 kmh 24.83 in840.8 mb 0.00 in0.0 mm 0.00 in/hr0.0 mm/hr 0.00 in0.0 mm
08:16 PM 55.8°F13.2°C 41.7°F5.4°C 59% 2.0 mph NE3.2 kmh NE 5.4 mph8.7 kmh 24.83 in840.8 mb 0.00 in0.0 mm 0.00 in/hr0.0 mm/hr 0.00 in0.0 mm
08:21 PM 55.4°F13.0°C 40.8°F4.9°C 58% 3.0 mph NE4.8 kmh NE 4.9 mph7.9 kmh 24.83 in840.8 mb 0.00 in0.0 mm 0.00 in/hr0.0 mm/hr 0.00 in0.0 mm
08:26 PM 55.2°F12.9°C 41.2°F5.1°C 59% 3.0 mph NE4.8 kmh NE 5.8 mph9.3 kmh 24.83 in840.8 mb 0.00 in0.0 mm 0.00 in/hr0.0 mm/hr 0.00 in0.0 mm
08:31 PM 55.4°F13.0°C 41.4°F5.2°C 59% 3.0 mph NE4.8 kmh NE 6.3 mph10.1 kmh 24.83 in840.8 mb 0.00 in0.0 mm 0.00 in/hr0.0 mm/hr 0.00 in0.0 mm
08:36 PM 55.6°F13.1°C 41.9°F5.5°C 60% 2.0 mph ENE3.2 kmh ENE 6.3 mph10.1 kmh 24.83 in840.8 mb 0.00 in0.0 mm 0.00 in/hr0.0 mm/hr 0.00 in0.0 mm
08:41 PM 55.4°F13.0°C 41.7°F5.4°C 60% Calm Calm 3.6 mph5.8 kmh 24.83 in840.8 mb 0.00 in0.0 mm 0.00 in/hr0.0 mm/hr 0.00 in0.0 mm
08:46 PM 55.4°F13.0°C 41.7°F5.4°C 60% Calm Calm 6.3 mph10.1 kmh 24.83 in840.8 mb 0.00 in0.0 mm 0.00 in/hr0.0 mm/hr 0.00 in0.0 mm
08:51 PM 55.0°F12.8°C 41.4°F5.2°C 60% 1.0 mph SE1.6 kmh SE 5.8 mph9.3 kmh 24.83 in840.8 mb 0.00 in0.0 mm 0.00 in/hr0.0 mm/hr 0.00 in0.0 mm
08:56 PM 55.0°F12.8°C 41.9°F5.5°C 61% Calm Calm 2.7 mph4.3 kmh 24.83 in840.8 mb 0.00 in0.0 mm 0.00 in/hr0.0 mm/hr 0.00 in0.0 mm
09:01 PM 54.7°F12.6°C 41.5°F5.3°C 61% Calm Calm -- 24.83 in840.8 mb 0.00 in0.0 mm 0.00 in/hr0.0 mm/hr 0.00 in0.0 mm
09:06 PM 54.1°F12.3°C 41.0°F5.0°C 61% Calm Calm 2.7 mph4.3 kmh 24.83 in840.8 mb 0.00 in0.0 mm 0.00 in/hr0.0 mm/hr 0.00 in0.0 mm
09:11 PM 53.4°F11.9°C 40.6°F4.8°C 62% Calm Calm -- 24.86 in841.9 mb 0.00 in0.0 mm 0.00 in/hr0.0 mm/hr 0.00 in0.0 mm
09:16 PM 53.6°F12.0°C 41.7°F5.4°C 64% Calm Calm -- 24.86 in841.9 mb 0.00 in0.0 mm 0.00 in/hr0.0 mm/hr 0.00 in0.0 mm
09:21 PM 53.8°F12.1°C 41.9°F5.5°C 64% Calm Calm -- 24.86 in841.9 mb 0.00 in0.0 mm 0.00 in/hr0.0 mm/hr 0.00 in0.0 mm
09:26 PM 54.1°F12.3°C 42.3°F5.7°C 64% Calm Calm -- 24.83 in840.8 mb 0.00 in0.0 mm 0.00 in/hr0.0 mm/hr 0.00 in0.0 mm
09:31 PM 53.6°F12.0°C 40.8°F4.9°C 62% Calm Calm 2.7 mph4.3 kmh 24.83 in840.8 mb 0.00 in0.0 mm 0.00 in/hr0.0 mm/hr 0.00 in0.0 mm
09:36 PM 53.2°F11.8°C 41.0°F5.0°C 63% Calm Calm -- 24.83 in840.8 mb 0.00 in0.0 mm 0.00 in/hr0.0 mm/hr 0.00 in0.0 mm
09:41 PM 53.2°F11.8°C 41.7°F5.4°C 65% Calm Calm 2.7 mph4.3 kmh 24.86 in841.9 mb 0.00 in0.0 mm 0.00 in/hr0.0 mm/hr 0.00 in0.0 mm
09:46 PM 53.4°F11.9°C 42.3°F5.7°C 66% Calm Calm -- 24.86 in841.9 mb 0.00 in0.0 mm 0.00 in/hr0.0 mm/hr 0.00 in0.0 mm
09:51 PM 53.6°F12.0°C 42.4°F5.8°C 66% Calm Calm -- 24.86 in841.9 mb 0.00 in0.0 mm 0.00 in/hr0.0 mm/hr 0.00 in0.0 mm
09:56 PM 53.6°F12.0°C 42.4°F5.8°C 66% Calm Calm -- 24.86 in841.9 mb 0.00 in0.0 mm 0.00 in/hr0.0 mm/hr 0.00 in0.0 mm
10:01 PM 53.8°F12.1°C 42.6°F5.9°C 66% Calm Calm -- 24.86 in841.9 mb 0.00 in0.0 mm 0.00 in/hr0.0 mm/hr 0.00 in0.0 mm
10:06 PM 54.1°F12.3°C 42.6°F5.9°C 65% Calm Calm -- 24.86 in841.9 mb 0.00 in0.0 mm 0.00 in/hr0.0 mm/hr 0.00 in0.0 mm
10:11 PM 54.5°F12.5°C 42.6°F5.9°C 64% Calm Calm -- 24.86 in841.9 mb 0.00 in0.0 mm 0.00 in/hr0.0 mm/hr 0.00 in0.0 mm
10:16 PM 54.7°F12.6°C 42.8°F6.0°C 64% Calm Calm -- 24.86 in841.9 mb 0.00 in0.0 mm 0.00 in/hr0.0 mm/hr 0.00 in0.0 mm
10:21 PM 55.0°F12.8°C 42.6°F5.9°C 63% Calm Calm -- 24.86 in841.9 mb 0.00 in0.0 mm 0.00 in/hr0.0 mm/hr 0.00 in0.0 mm
10:26 PM 55.0°F12.8°C 41.9°F5.5°C 61% Calm Calm -- 24.86 in841.9 mb 0.00 in0.0 mm 0.00 in/hr0.0 mm/hr 0.00 in0.0 mm
10:31 PM 55.4°F13.0°C 42.6°F5.9°C 62% Calm Calm 4.0 mph6.4 kmh 24.86 in841.9 mb 0.00 in0.0 mm 0.00 in/hr0.0 mm/hr 0.00 in0.0 mm
10:36 PM 55.4°F13.0°C 41.4°F5.2°C 59% Calm Calm 5.8 mph9.3 kmh 24.86 in841.9 mb 0.00 in0.0 mm 0.00 in/hr0.0 mm/hr 0.00 in0.0 mm
10:41 PM 54.9°F12.7°C 41.2°F5.1°C 60% 3.0 mph NE4.8 kmh NE 8.3 mph13.4 kmh 24.86 in841.9 mb 0.00 in0.0 mm 0.00 in/hr0.0 mm/hr 0.00 in0.0 mm
10:46 PM 54.3°F12.4°C 42.4°F5.8°C 64% 5.0 mph N8.0 kmh N 7.4 mph11.9 kmh 24.86 in841.9 mb 0.00 in0.0 mm 0.00 in/hr0.0 mm/hr 0.00 in0.0 mm
10:51 PM 54.0°F12.2°C 43.3°F6.3°C 67% 5.0 mph N8.0 kmh N 6.3 mph10.1 kmh 24.86 in841.9 mb 0.00 in0.0 mm 0.00 in/hr0.0 mm/hr 0.00 in0.0 mm
10:56 PM 54.0°F12.2°C 43.3°F6.3°C 67% 4.0 mph N6.4 kmh N 6.9 mph11.1 kmh 24.86 in841.9 mb 0.00 in0.0 mm 0.00 in/hr0.0 mm/hr 0.00 in0.0 mm
11:01 PM 53.8°F12.1°C 43.5°F6.4°C 68% 4.0 mph NNW6.4 kmh NNW 6.9 mph11.1 kmh 24.86 in841.9 mb 0.00 in0.0 mm 0.00 in/hr0.0 mm/hr 0.00 in0.0 mm
11:06 PM 53.8°F12.1°C 43.5°F6.4°C 68% 2.0 mph NW3.2 kmh NW 4.5 mph7.2 kmh 24.86 in841.9 mb 0.00 in0.0 mm 0.00 in/hr0.0 mm/hr 0.00 in0.0 mm
11:11 PM 53.8°F12.1°C 43.9°F6.6°C 69% Calm Calm 3.6 mph5.8 kmh 24.86 in841.9 mb 0.00 in0.0 mm 0.00 in/hr0.0 mm/hr 0.00 in0.0 mm
11:17 PM 53.6°F12.0°C 44.1°F6.7°C 70% Calm Calm 4.0 mph6.4 kmh 24.86 in841.9 mb 0.00 in0.0 mm 0.00 in/hr0.0 mm/hr 0.00 in0.0 mm
11:22 PM 53.4°F11.9°C 44.2°F6.8°C 71% 1.0 mph WNW1.6 kmh WNW 5.4 mph8.7 kmh 24.86 in841.9 mb 0.00 in0.0 mm 0.00 in/hr0.0 mm/hr 0.00 in0.0 mm
11:27 PM 53.4°F11.9°C 44.2°F6.8°C 71% 3.0 mph WNW4.8 kmh WNW 5.8 mph9.3 kmh 24.86 in841.9 mb 0.00 in0.0 mm 0.00 in/hr0.0 mm/hr 0.00 in0.0 mm
11:32 PM 53.4°F11.9°C 44.2°F6.8°C 71% 3.0 mph WNW4.8 kmh WNW 6.3 mph10.1 kmh 24.86 in841.9 mb 0.00 in0.0 mm 0.00 in/hr0.0 mm/hr 0.00 in0.0 mm
11:37 PM 53.4°F11.9°C 44.2°F6.8°C 71% 4.0 mph NW6.4 kmh NW 6.7 mph10.8 kmh 24.86 in841.9 mb 0.00 in0.0 mm 0.00 in/hr0.0 mm/hr 0.00 in0.0 mm
11:42 PM 53.4°F11.9°C 44.2°F6.8°C 71% 4.0 mph NW6.4 kmh NW 6.9 mph11.1 kmh 24.86 in841.9 mb 0.00 in0.0 mm 0.00 in/hr0.0 mm/hr 0.00 in0.0 mm
11:47 PM 53.4°F11.9°C 44.2°F6.8°C 71% 4.0 mph NW6.4 kmh NW 7.4 mph11.9 kmh 24.86 in841.9 mb 0.00 in0.0 mm 0.00 in/hr0.0 mm/hr 0.00 in0.0 mm
11:52 PM 53.6°F12.0°C 44.8°F7.1°C 72% 5.0 mph NW8.0 kmh NW 8.3 mph13.4 kmh 24.86 in841.9 mb 0.00 in0.0 mm 0.00 in/hr0.0 mm/hr 0.00 in0.0 mm
11:57 PM 53.4°F11.9°C 44.6°F7.0°C 72% 5.0 mph NW8.0 kmh NW 9.2 mph14.8 kmh 24.86 in841.9 mb 0.00 in0.0 mm 0.00 in/hr0.0 mm/hr 0.00 in0.0 mm